Time;durP1;ratioP1;P1;durP2;ratioP2;P2;SDS_P1;SDS_P2;PMS_P1;PMS_P2;Temp;Humidity;BMP_temperature;BMP_pressure;BME280_temperature;BME280_humidity;BME280_pressure;Samples;Min_cycle;Max_cycle;Signal;HPM_P1;HPM_P2
2023/03/16 00:01:47;;;;;;;;;;;;;;;;;;5113650;27;1133;-40
2023/03/16 00:04:14;;;;;;;;;;;;;;;;;;5113319;28;1965;-41
2023/03/16 00:06:41;;;;;;;;;;;;;;;;;;5113175;28;1033;-40
2023/03/16 00:09:08;;;;;;;;;;;;;;;;;;5112472;28;1083;-41
2023/03/16 00:11:35;;;;;;;;;;;;;;;;;;5113197;28;1182;-40
2023/03/16 00:14:03;;;;;;;;;;;;;;;;;;5113220;28;1060;-40
2023/03/16 00:16:29;;;;;;;;;;;;;;;;;;5113137;28;1052;-40
2023/03/16 00:18:58;;;;;;;;;;;;;;;;;;5113014;28;1112;-40
2023/03/16 00:21:25;;;;;;;;;;;;;;;;;;5113041;27;1237;-41
2023/03/16 00:23:52;;;;;;;;;;;;;;;;;;5113350;28;1435;-43
2023/03/16 00:26:19;;;;;;;;;;;;;;;;;;5113156;28;1943;-41
2023/03/16 00:28:46;;;;;;;;;;;;;;;;;;5112951;28;1454;-41
2023/03/16 00:31:13;;;;;;;;;;;;;;;;;;5111540;28;1191;-41
2023/03/16 00:33:41;;;;;;;;;;;;;;;;;;5112810;28;949;-41
2023/03/16 00:36:10;;;;;;;;;;;;;;;;;;5112825;28;1170;-40
2023/03/16 00:38:37;;;;;;;;;;;;;;;;;;5111537;28;1376;-41
2023/03/16 00:41:04;;;;;;;;;;;;;;;;;;5112535;28;1216;-40
2023/03/16 00:43:39;;;;;;;;;;;;;;;;;;5111134;28;1202;-41
2023/03/16 00:46:07;;;;;;;;;;;;;;;;;;5110886;28;1960;-41
2023/03/16 00:48:34;;;;;;;;;;;;;;;;;;5111273;28;1182;-41
2023/03/16 00:51:01;;;;;;;;;;;;;;;;;;5112755;28;1100;-40
2023/03/16 00:53:28;;;;;;;;;;;;;;;;;;5112309;28;1076;-40
2023/03/16 00:55:55;;;;;;;;;;;;;;;;;;5111007;28;1339;-40
2023/03/16 00:58:22;;;;;;;;;;;;;;;;;;5112372;28;1270;-40
2023/03/16 01:00:52;;;;;;;;;;;;;;;;;;5112412;28;1214;-40
2023/03/16 01:03:20;;;;;;;;;;;;;;;;;;5110879;28;1161;-40
2023/03/16 01:05:47;;;;;;;;;;;;;;;;;;5129924;27;1913;-40
2023/03/16 01:08:14;;;;;;;;;;;;;;;;;;5132818;27;1129;-40
2023/03/16 01:10:44;;;;;;;;;;;;;;;;;;5132532;27;1347;-40
2023/03/16 01:13:13;;;;;;;;;;;;;;;;;;5132650;27;1106;-40
2023/03/16 01:15:41;;;;;;;;;;;;;;;;;;5132412;27;919;-41
2023/03/16 01:18:08;;;;;;;;;;;;;;;;;;5131193;27;1213;-41
2023/03/16 01:20:35;;;;;;;;;;;;;;;;;;5130963;27;1252;-41
2023/03/16 01:23:04;;;;;;;;;;;;;;;;;;5115085;27;1351;-43
2023/03/16 01:25:31;;;;;;;;;;;;;;;;;;5110323;28;1915;-41
2023/03/16 01:27:58;;;;;;;;;;;;;;;;;;5111876;28;1366;-41
2023/03/16 01:30:25;;;;;;;;;;;;;;;;;;5112082;28;1163;-42
2023/03/16 01:32:52;;;;;;;;;;;;;;;;;;5111805;28;1198;-43
2023/03/16 01:35:20;;;;;;;;;;;;;;;;;;5110612;28;1430;-41
2023/03/16 01:37:48;;;;;;;;;;;;;;;;;;5110394;28;1289;-41
2023/03/16 01:40:19;;;;;;;;;;;;;;;;;;5110453;28;1226;-41
2023/03/16 01:42:47;;;;;;;;;;;;;;;;;;5111656;28;1176;-42
2023/03/16 01:45:14;;;;;;;;;;;;;;;;;;5110095;28;1981;-41
2023/03/16 01:47:41;;;;;;;;;;;;;;;;;;5111759;28;1113;-42
2023/03/16 01:50:12;;;;;;;;;;;;;;;;;;5110248;28;1539;-41
2023/03/16 01:52:41;;;;;;;;;;;;;;;;;;5110087;28;1440;-39
2023/03/16 01:55:08;;;;;;;;;;;;;;;;;;5110341;28;1428;-42
2023/03/16 01:57:35;;;;;;;;;;;;;;;;;;5110232;28;1595;-40
2023/03/16 02:00:08;;;;;;;;;;;;;;;;;;5110324;28;1387;-40
2023/03/16 02:02:45;;;;;;;;;;;;;;;;;;5110196;28;1557;-40
2023/03/16 02:05:20;;;;;;;;;;;;;;;;;;5110159;28;1982;-41
2023/03/16 02:07:47;;;;;;;;;;;;;;;;;;5110059;28;1225;-42
2023/03/16 02:10:13;;;;;;;;;;;;;;;;;;5110116;28;1191;-45
2023/03/16 02:12:41;;;;;;;;;;;;;;;;;;5109968;28;1020;-43
2023/03/16 02:15:08;;;;;;;;;;;;;;;;;;5111547;28;1041;-42
2023/03/16 02:17:35;;;;;;;;;;;;;;;;;;5109878;28;1384;-45
2023/03/16 02:20:10;;;;;;;;;;;;;;;;;;5110150;28;1423;-42
2023/03/16 02:22:37;;;;;;;;;;;;;;;;;;5111249;28;1180;-41
2023/03/16 02:25:05;;;;;;;;;;;;;;;;;;5111224;28;1914;-41
2023/03/16 02:27:33;;;;;;;;;;;;;;;;;;5131859;28;1064;-41
2023/03/16 02:30:01;;;;;;;;;;;;;;;;;;5131908;27;902;-41
2023/03/16 02:32:32;;;;;;;;;;;;;;;;;;5133690;27;1654;-41
2023/03/16 02:35:00;;;;;;;;;;;;;;;;;;5134556;27;1561;-42
2023/03/16 02:37:28;;;;;;;;;;;;;;;;;;5135726;27;1156;-42
2023/03/16 02:39:55;;;;;;;;;;;;;;;;;;5134188;27;1205;-42
2023/03/16 02:42:22;;;;;;;;;;;;;;;;;;5134325;27;1107;-46
2023/03/16 02:44:50;;;;;;;;;;;;;;;;;;5133864;27;1908;-42
2023/03/16 02:47:19;;;;;;;;;;;;;;;;;;5134101;27;1539;-42
2023/03/16 02:49:46;;;;;;;;;;;;;;;;;;5134216;27;1304;-40
2023/03/16 02:52:14;;;;;;;;;;;;;;;;;;5133975;27;1392;-42
2023/03/16 02:54:41;;;;;;;;;;;;;;;;;;5135339;27;997;-41
2023/03/16 02:57:08;;;;;;;;;;;;;;;;;;5099830;28;1554;-41
2023/03/16 02:59:35;;;;;;;;;;;;;;;;;;5113113;28;1406;-41
2023/03/16 03:02:08;;;;;;;;;;;;;;;;;;5113215;28;1241;-41
2023/03/16 03:04:37;;;;;;;;;;;;;;;;;;5114522;28;917;-42
2023/03/16 03:07:05;;;;;;;;;;;;;;;;;;5113125;28;1964;-42
2023/03/16 03:09:47;;;;;;;;;;;;;;;;;;5113110;28;1783;-41
2023/03/16 03:12:14;;;;;;;;;;;;;;;;;;5114559;28;1081;-42
2023/03/16 03:14:41;;;;;;;;;;;;;;;;;;5114315;28;996;-42
2023/03/16 03:17:08;;;;;;;;;;;;;;;;;;5112992;28;1291;-41
2023/03/16 03:19:35;;;;;;;;;;;;;;;;;;5112967;28;1456;-42
2023/03/16 03:22:03;;;;;;;;;;;;;;;;;;5113167;28;1440;-41
2023/03/16 03:24:30;;;;;;;;;;;;;;;;;;5114322;28;1094;-42
2023/03/16 03:27:04;;;;;;;;;;;;;;;;;;5112611;28;1910;-41
2023/03/16 03:29:34;;;;;;;;;;;;;;;;;;5113046;28;1431;-41
2023/03/16 03:32:02;;;;;;;;;;;;;;;;;;5112888;28;1174;-42
2023/03/16 03:34:29;;;;;;;;;;;;;;;;;;5112641;28;1454;-42
2023/03/16 03:36:56;;;;;;;;;;;;;;;;;;5112449;28;1620;-41
2023/03/16 03:39:24;;;;;;;;;;;;;;;;;;5113909;28;1009;-42
2023/03/16 03:41:53;;;;;;;;;;;;;;;;;;5112471;28;1419;-41
2023/03/16 03:44:21;;;;;;;;;;;;;;;;;;5112045;28;1353;-41
2023/03/16 03:46:48;;;;;;;;;;;;;;;;;;5112551;28;1933;-42
2023/03/16 03:49:15;;;;;;;;;;;;;;;;;;5112143;28;1186;-42
2023/03/16 03:51:42;;;;;;;;;;;;;;;;;;5112475;28;1583;-42
2023/03/16 03:54:13;;;;;;;;;;;;;;;;;;5112211;28;1595;-43
2023/03/16 03:56:53;;;;;;;;;;;;;;;;;;5112147;28;1285;-42
2023/03/16 03:59:21;;;;;;;;;;;;;;;;;;5113573;28;1174;-42
2023/03/16 04:02:12;;;;;;;;;;;;;;;;;;5093444;28;1196;-40
2023/03/16 04:04:46;;;;;;;;;;;;;;;;;;5112190;28;1482;-43
2023/03/16 04:07:14;;;;;;;;;;;;;;;;;;5111928;28;1919;-42
2023/03/16 04:09:42;;;;;;;;;;;;;;;;;;5111990;28;1248;-41
2023/03/16 04:12:18;;;;;;;;;;;;;;;;;;5111833;28;1381;-41
2023/03/16 04:14:46;;;;;;;;;;;;;;;;;;5095020;28;1353;-42
2023/03/16 04:17:15;;;;;;;;;;;;;;;;;;5111956;28;1477;-41
2023/03/16 04:19:43;;;;;;;;;;;;;;;;;;5111745;28;1949;-42
2023/03/16 04:22:13;;;;;;;;;;;;;;;;;;5112359;28;1139;-42
2023/03/16 04:24:43;;;;;;;;;;;;;;;;;;5111616;28;2211;-41
2023/03/16 04:27:12;;;;;;;;;;;;;;;;;;5128798;27;2008;-41
2023/03/16 04:29:39;;;;;;;;;;;;;;;;;;5132390;27;1424;-42
2023/03/16 04:32:06;;;;;;;;;;;;;;;;;;5132111;27;1206;-41
2023/03/16 04:34:33;;;;;;;;;;;;;;;;;;5132050;27;1672;-42
2023/03/16 04:37:03;;;;;;;;;;;;;;;;;;5131867;27;2192;-41
2023/03/16 04:39:32;;;;;;;;;;;;;;;;;;5131774;27;1463;-42
2023/03/16 04:42:00;;;;;;;;;;;;;;;;;;5115126;27;1189;-43
2023/03/16 04:44:27;;;;;;;;;;;;;;;;;;5131592;27;1236;-40
2023/03/16 04:46:55;;;;;;;;;;;;;;;;;;5131773;27;1984;-41
2023/03/16 04:49:25;;;;;;;;;;;;;;;;;;5131774;27;1788;-42
2023/03/16 04:51:54;;;;;;;;;;;;;;;;;;5132942;27;1128;-41
2023/03/16 04:54:21;;;;;;;;;;;;;;;;;;5132448;27;1267;-42
2023/03/16 04:56:49;;;;;;;;;;;;;;;;;;5117256;27;1385;-41
2023/03/16 04:59:31;;;;;;;;;;;;;;;;;;5110882;28;1312;-41
2023/03/16 05:02:15;;;;;;;;;;;;;;;;;;5110946;28;1600;-43
2023/03/16 05:04:58;;;;;;;;;;;;;;;;;;5110797;28;1249;-41
2023/03/16 05:07:37;;;;;;;;;;;;;;;;;;5110762;28;2181;-42
2023/03/16 05:10:22;;;;;;;;;;;;;;;;;;5110895;28;1309;-43
2023/03/16 05:12:54;;;;;;;;;;;;;;;;;;5110942;28;1555;-42
2023/03/16 05:15:24;;;;;;;;;;;;;;;;;;5110751;28;1199;-42
2023/03/16 05:18:16;;;;;;;;;;;;;;;;;;5110934;28;1417;-42
2023/03/16 05:20:47;;;;;;;;;;;;;;;;;;5111836;28;1322;-42
2023/03/16 05:23:25;;;;;;;;;;;;;;;;;;5110257;28;1406;-41
2023/03/16 05:26:26;;;;;;;;;;;;;;;;;;5111989;28;1903;-42
2023/03/16 05:29:01;;;;;;;;;;;;;;;;;;5110532;28;1220;-43
2023/03/16 05:31:55;;;;;;;;;;;;;;;;;;5111837;28;958;-44
2023/03/16 05:35:21;;;;;;;;;;;;;;;;;;5111726;28;1128;-41
2023/03/16 05:41:29;;;;;;;;;;;;;;;;;;5111736;28;1366;-42
2023/03/16 05:44:29;;;;;;;;;;;;;;;;;;5115368;28;1333;-40
2023/03/16 05:51:34;;;;;;;;;;;;;;;;;;5128608;28;1390;-40
2023/03/16 05:54:03;;;;;;;;;;;;;;;;;;5113682;28;959;-41
2023/03/16 05:56:36;;;;;;;;;;;;;;;;;;5126087;27;1404;-44
2023/03/16 05:59:03;;;;;;;;;;;;;;;;;;5134172;27;1244;-41
2023/03/16 06:01:32;;;;;;;;;;;;;;;;;;5133987;27;1311;-42
2023/03/16 06:04:02;;;;;;;;;;;;;;;;;;5134248;27;1424;-41
2023/03/16 06:06:32;;;;;;;;;;;;;;;;;;5136044;27;1908;-42
2023/03/16 06:09:05;;;;;;;;;;;;;;;;;;5138293;27;1465;-42
2023/03/16 06:11:32;;;;;;;;;;;;;;;;;;5138265;27;1442;-43
2023/03/16 06:14:04;;;;;;;;;;;;;;;;;;5138141;27;1467;-45
2023/03/16 06:16:41;;;;;;;;;;;;;;;;;;5138794;27;1459;-42
2023/03/16 06:19:08;;;;;;;;;;;;;;;;;;5138107;27;1492;-44
2023/03/16 06:21:37;;;;;;;;;;;;;;;;;;5137910;27;1659;-41
2023/03/16 06:24:08;;;;;;;;;;;;;;;;;;5138018;27;1293;-47
2023/03/16 06:26:35;;;;;;;;;;;;;;;;;;5137882;27;1987;-42
2023/03/16 06:29:03;;;;;;;;;;;;;;;;;;5137780;27;1316;-42
2023/03/16 06:32:06;;;;;;;;;;;;;;;;;;5170884;27;1520;-44
2023/03/16 06:38:09;;;;;;;;;;;;;;;;;;5170690;27;1127;-42
2023/03/16 06:40:53;;;;;;;;;;;;;;;;;;5152398;27;1666;-43
2023/03/16 06:43:21;;;;;;;;;;;;;;;;;;5152155;27;1372;-42
2023/03/16 06:45:49;;;;;;;;;;;;;;;;;;5152313;27;2434;-46
2023/03/16 06:52:02;;;;;;;;;;;;;;;;;;5169401;27;1911;-41
2023/03/16 06:54:32;;;;;;;;;;;;;;;;;;5152086;27;1553;-41
2023/03/16 06:57:00;;;;;;;;;;;;;;;;;;5152004;27;1375;-42
2023/03/16 06:59:27;;;;;;;;;;;;;;;;;;5152027;27;1198;-44
2023/03/16 07:02:02;;;;;;;;;;;;;;;;;;5151852;27;1201;-42
2023/03/16 07:08:05;;;;;;;;;;;;;;;;;;5169737;27;1118;-52
2023/03/16 07:10:33;;;;;;;;;;;;;;;;;;5170438;27;1982;-43
2023/03/16 07:13:00;;;;;;;;;;;;;;;;;;5151554;27;1384;-48
2023/03/16 07:15:35;;;;;;;;;;;;;;;;;;5151813;27;1375;-44
2023/03/16 07:18:17;;;;;;;;;;;;;;;;;;5151710;27;1606;-43
2023/03/16 07:20:44;;;;;;;;;;;;;;;;;;5170285;27;1076;-41
2023/03/16 07:23:11;;;;;;;;;;;;;;;;;;5170269;27;1143;-42
2023/03/16 07:25:39;;;;;;;;;;;;;;;;;;5151808;27;1268;-43
2023/03/16 07:28:06;;;;;;;;;;;;;;;;;;5151375;27;1241;-42
2023/03/16 07:30:38;;;;;;;;;;;;;;;;;;5151346;27;2025;-42
2023/03/16 07:33:08;;;;;;;;;;;;;;;;;;5152068;27;1028;-42
2023/03/16 07:35:35;;;;;;;;;;;;;;;;;;5169979;27;972;-42
2023/03/16 07:41:47;;;;;;;;;;;;;;;;;;5165818;27;993;-42
2023/03/16 07:44:17;;;;;;;;;;;;;;;;;;5137380;27;1471;-42
2023/03/16 07:46:47;;;;;;;;;;;;;;;;;;5137435;27;1452;-42
2023/03/16 07:49:15;;;;;;;;;;;;;;;;;;5137326;27;1395;-42
2023/03/16 07:51:43;;;;;;;;;;;;;;;;;;5137313;27;1915;-65
2023/03/16 07:54:10;;;;;;;;;;;;;;;;;;5130691;27;2387;-42
2023/03/16 07:56:39;;;;;;;;;;;;;;;;;;5116086;27;1647;-45
2023/03/16 07:59:25;;;;;;;;;;;;;;;;;;5136067;27;1171;-59
2023/03/16 08:01:52;;;;;;;;;;;;;;;;;;5137127;27;1326;-48
2023/03/16 08:04:19;;;;;;;;;;;;;;;;;;5137153;27;2589;-56
2023/03/16 08:06:46;;;;;;;;;;;;;;;;;;5136806;27;1243;-61
2023/03/16 08:12:47;;;;;;;;;;;;;;;;;;5155420;27;1026;-44
2023/03/16 08:15:14;;;;;;;;;;;;;;;;;;5136823;27;1265;-42
2023/03/16 08:17:42;;;;;;;;;;;;;;;;;;5136958;27;1528;-42
2023/03/16 08:20:14;;;;;;;;;;;;;;;;;;5136761;27;1197;-42
2023/03/16 08:22:45;;;;;;;;;;;;;;;;;;5136766;27;1285;-46
2023/03/16 08:25:15;;;;;;;;;;;;;;;;;;5136755;27;1295;-43
2023/03/16 08:27:51;;;;;;;;;;;;;;;;;;5136313;27;1391;-44
2023/03/16 08:30:21;;;;;;;;;;;;;;;;;;5154817;27;1910;-43
2023/03/16 08:33:00;;;;;;;;;;;;;;;;;;5136111;27;1331;-44
2023/03/16 08:35:28;;;;;;;;;;;;;;;;;;5136417;27;1451;-43
2023/03/16 08:37:55;;;;;;;;;;;;;;;;;;5136234;27;1460;-43
2023/03/16 08:40:24;;;;;;;;;;;;;;;;;;5136232;27;1224;-43
2023/03/16 08:42:53;;;;;;;;;;;;;;;;;;5146358;27;908;-42
2023/03/16 08:45:20;;;;;;;;;;;;;;;;;;5115454;27;1517;-42
2023/03/16 08:47:49;;;;;;;;;;;;;;;;;;5115868;27;1492;-42
2023/03/16 08:50:16;;;;;;;;;;;;;;;;;;5134002;27;1914;-42
2023/03/16 08:52:43;;;;;;;;;;;;;;;;;;5133898;27;923;-42
2023/03/16 08:55:10;;;;;;;;;;;;;;;;;;5133074;27;1333;-43
2023/03/16 08:57:38;;;;;;;;;;;;;;;;;;5154456;27;1157;-41
2023/03/16 09:00:12;;;;;;;;;;;;;;;;;;5154625;27;899;-42
2023/03/16 09:02:39;;;;;;;;;;;;;;;;;;5154355;27;1068;-44
2023/03/16 09:05:07;;;;;;;;;;;;;;;;;;5154357;27;872;-53
2023/03/16 09:07:35;;;;;;;;;;;;;;;;;;5154103;27;1076;-65
2023/03/16 09:10:04;;;;;;;;;;;;;;;;;;5154373;27;1318;-43
2023/03/16 09:12:42;;;;;;;;;;;;;;;;;;5153977;27;1985;-45
2023/03/16 09:15:10;;;;;;;;;;;;;;;;;;5136006;27;1166;-43
2023/03/16 09:17:38;;;;;;;;;;;;;;;;;;5135751;27;1042;-42
2023/03/16 09:20:08;;;;;;;;;;;;;;;;;;5154186;27;1065;-46
2023/03/16 09:22:48;;;;;;;;;;;;;;;;;;5135438;27;1177;-45
2023/03/16 09:25:14;;;;;;;;;;;;;;;;;;5154197;27;1126;-47
2023/03/16 09:27:44;;;;;;;;;;;;;;;;;;5153923;27;1170;-43
2023/03/16 09:30:12;;;;;;;;;;;;;;;;;;5153693;27;1291;-43
2023/03/16 09:32:40;;;;;;;;;;;;;;;;;;5153716;27;1906;-47
2023/03/16 09:36:12;;;;;;;;;;;;;;;;;;5154251;27;1179;-46
2023/03/16 09:38:39;;;;;;;;;;;;;;;;;;5153556;27;1309;-44
2023/03/16 09:41:07;;;;;;;;;;;;;;;;;;5153656;27;1101;-43
2023/03/16 09:43:34;;;;;;;;;;;;;;;;;;5153560;27;1074;-43
2023/03/16 09:46:01;;;;;;;;;;;;;;;;;;5153517;27;1110;-46
2023/03/16 09:48:28;;;;;;;;;;;;;;;;;;5153605;27;1137;-43
2023/03/16 09:50:58;;;;;;;;;;;;;;;;;;5134643;27;1910;-43
2023/03/16 09:53:25;;;;;;;;;;;;;;;;;;5153613;27;967;-43
2023/03/16 09:55:52;;;;;;;;;;;;;;;;;;5146883;27;1486;-43
2023/03/16 09:58:20;;;;;;;;;;;;;;;;;;5114501;27;1698;-43
2023/03/16 10:00:47;;;;;;;;;;;;;;;;;;5132896;27;1147;-44
2023/03/16 10:03:16;;;;;;;;;;;;;;;;;;5132644;27;1253;-43
2023/03/16 10:05:43;;;;;;;;;;;;;;;;;;5132266;27;1059;-65
2023/03/16 10:08:10;;;;;;;;;;;;;;;;;;5132530;27;1149;-44
2023/03/16 10:10:37;;;;;;;;;;;;;;;;;;5132481;27;1906;-43
2023/03/16 10:13:04;;;;;;;;;;;;;;;;;;5132431;27;1091;-44
2023/03/16 10:15:31;;;;;;;;;;;;;;;;;;5132392;27;1060;-43
2023/03/16 10:17:58;;;;;;;;;;;;;;;;;;5132383;27;904;-57
2023/03/16 10:27:43;;;;;;;;;;;;;;;;;;5131889;27;1247;-43
2023/03/16 10:30:46;;;;;;;;;;;;;;;;;;5131303;28;1990;-42
2023/03/16 10:33:17;;;;;;;;;;;;;;;;;;5132255;28;1189;-42
2023/03/16 10:35:44;;;;;;;;;;;;;;;;;;5113648;28;1277;-45
2023/03/16 10:38:11;;;;;;;;;;;;;;;;;;5132160;28;1035;-44
2023/03/16 10:40:39;;;;;;;;;;;;;;;;;;5131984;28;1604;-43
2023/03/16 10:43:08;;;;;;;;;;;;;;;;;;5132129;28;1160;-43
2023/03/16 10:45:35;;;;;;;;;;;;;;;;;;5132094;28;1020;-46
2023/03/16 10:48:02;;;;;;;;;;;;;;;;;;5132176;28;1169;-46
2023/03/16 10:50:29;;;;;;;;;;;;;;;;;;5132223;28;1159;-43
2023/03/16 10:53:00;;;;;;;;;;;;;;;;;;5131884;28;1907;-42
2023/03/16 10:55:32;;;;;;;;;;;;;;;;;;5116460;27;1289;-43
2023/03/16 10:58:00;;;;;;;;;;;;;;;;;;5152547;27;1022;-42
2023/03/16 11:00:27;;;;;;;;;;;;;;;;;;5152764;27;1046;-55
2023/03/16 11:02:54;;;;;;;;;;;;;;;;;;5152929;27;966;-49
2023/03/16 11:05:22;;;;;;;;;;;;;;;;;;5152872;27;1101;-42
2023/03/16 11:07:49;;;;;;;;;;;;;;;;;;5152667;27;956;-43
2023/03/16 11:10:16;;;;;;;;;;;;;;;;;;5152346;27;1061;-42
2023/03/16 11:12:45;;;;;;;;;;;;;;;;;;5152438;27;1911;-42
2023/03/16 11:15:11;;;;;;;;;;;;;;;;;;5152483;27;1032;-44
2023/03/16 11:17:52;;;;;;;;;;;;;;;;;;5154589;27;1228;-42
2023/03/16 11:20:19;;;;;;;;;;;;;;;;;;5156373;27;1022;-42
2023/03/16 11:22:47;;;;;;;;;;;;;;;;;;5156390;27;1078;-43
2023/03/16 11:25:14;;;;;;;;;;;;;;;;;;5156274;27;1363;-43
2023/03/16 11:27:42;;;;;;;;;;;;;;;;;;5156425;27;1184;-43
2023/03/16 11:30:10;;;;;;;;;;;;;;;;;;5155997;27;1094;-44
2023/03/16 11:32:37;;;;;;;;;;;;;;;;;;5156259;27;1913;-44
2023/03/16 11:35:07;;;;;;;;;;;;;;;;;;5156291;27;1123;-42
2023/03/16 11:37:34;;;;;;;;;;;;;;;;;;5156022;27;1325;-67
2023/03/16 11:40:04;;;;;;;;;;;;;;;;;;5156098;27;1156;-59
2023/03/16 11:42:32;;;;;;;;;;;;;;;;;;5156061;27;1203;-43
2023/03/16 11:45:00;;;;;;;;;;;;;;;;;;5156300;27;1078;-43
2023/03/16 11:47:27;;;;;;;;;;;;;;;;;;5156041;27;1073;-44
2023/03/16 11:49:54;;;;;;;;;;;;;;;;;;5155841;27;911;-43
2023/03/16 11:52:22;;;;;;;;;;;;;;;;;;5155814;27;1986;-43
2023/03/16 11:54:49;;;;;;;;;;;;;;;;;;5155761;27;1344;-43
2023/03/16 11:57:16;;;;;;;;;;;;;;;;;;5137297;27;1383;-45
2023/03/16 11:59:43;;;;;;;;;;;;;;;;;;5134884;27;1041;-43
2023/03/16 12:02:21;;;;;;;;;;;;;;;;;;5116370;27;1309;-42
2023/03/16 12:15:28;;;;;;;;;;;;;;;;;;5134599;27;1390;-46
2023/03/16 12:21:31;;;;;;;;;;;;;;;;;;5134751;27;1009;-44
2023/03/16 12:23:59;;;;;;;;;;;;;;;;;;5134675;27;1303;-43
2023/03/16 12:26:29;;;;;;;;;;;;;;;;;;5134666;27;1012;-43
2023/03/16 12:28:57;;;;;;;;;;;;;;;;;;5134240;27;975;-43
2023/03/16 12:31:24;;;;;;;;;;;;;;;;;;5134073;27;1974;-56
2023/03/16 12:33:51;;;;;;;;;;;;;;;;;;5134355;27;926;-42
2023/03/16 12:36:18;;;;;;;;;;;;;;;;;;5134293;27;1332;-43
2023/03/16 12:38:45;;;;;;;;;;;;;;;;;;5134241;27;1227;-41
2023/03/16 12:41:13;;;;;;;;;;;;;;;;;;5134104;27;1407;-43
2023/03/16 12:43:43;;;;;;;;;;;;;;;;;;5134186;27;1084;-43
2023/03/16 12:46:10;;;;;;;;;;;;;;;;;;5133986;27;905;-45
2023/03/16 12:48:37;;;;;;;;;;;;;;;;;;5115981;27;936;-42
2023/03/16 12:51:04;;;;;;;;;;;;;;;;;;5134045;27;1160;-41
2023/03/16 12:53:31;;;;;;;;;;;;;;;;;;5133875;27;1909;-43
2023/03/16 12:55:58;;;;;;;;;;;;;;;;;;5133596;27;1467;-43
2023/03/16 12:58:26;;;;;;;;;;;;;;;;;;5133708;27;896;-42
2023/03/16 13:00:54;;;;;;;;;;;;;;;;;;5133833;27;944;-46
2023/03/16 13:03:24;;;;;;;;;;;;;;;;;;5133985;27;1064;-42
2023/03/16 13:05:51;;;;;;;;;;;;;;;;;;5133703;27;907;-42
2023/03/16 13:08:18;;;;;;;;;;;;;;;;;;5133685;27;1039;-41
2023/03/16 13:10:45;;;;;;;;;;;;;;;;;;5133423;27;1263;-43
2023/03/16 13:13:14;;;;;;;;;;;;;;;;;;5133302;27;1988;-43
2023/03/16 13:15:41;;;;;;;;;;;;;;;;;;5133426;27;1592;-44
2023/03/16 13:18:08;;;;;;;;;;;;;;;;;;5133581;27;1293;-43
2023/03/16 13:20:36;;;;;;;;;;;;;;;;;;5133379;27;909;-41
2023/03/16 13:23:03;;;;;;;;;;;;;;;;;;5133561;27;1059;-45
2023/03/16 13:25:31;;;;;;;;;;;;;;;;;;5133527;27;1061;-43
2023/03/16 13:27:58;;;;;;;;;;;;;;;;;;5133086;27;1363;-44
2023/03/16 13:30:25;;;;;;;;;;;;;;;;;;5133065;27;1232;-42
2023/03/16 13:32:52;;;;;;;;;;;;;;;;;;5132949;27;1905;-42
2023/03/16 13:35:22;;;;;;;;;;;;;;;;;;5133238;27;1228;-43
2023/03/16 13:37:49;;;;;;;;;;;;;;;;;;5133119;27;1081;-41
2023/03/16 13:40:18;;;;;;;;;;;;;;;;;;5132482;27;1026;-43
2023/03/16 14:41:42;;;;;;;;;;;;;;;;;;5111730;28;1207;-61
2023/03/16 14:44:11;;;;;;;;;;;;;;;;;;5111645;28;1107;-42
2023/03/16 14:46:43;;;;;;;;;;;;;;;;;;5111696;28;1383;-43
2023/03/16 14:53:03;;;;;;;;;;;;;;;;;;5113267;28;1923;-42
2023/03/16 15:06:44;;;;;;;;;;;;;;;;;;5135993;27;1121;-41
2023/03/16 15:20:31;;;;;;;;;;;;;;;;;;5135721;27;882;-41
2023/03/16 15:38:38;;;;;;;;;;;;;;;;;;5114885;28;1567;-50
2023/03/16 15:52:03;;;;;;;;;;;;;;;;;;5114465;28;1977;-42
2023/03/16 15:55:06;;;;;;;;;;;;;;;;;;5114738;28;980;-42
2023/03/16 16:01:09;;;;;;;;;;;;;;;;;;5094023;28;1077;-41
2023/03/16 16:03:36;;;;;;;;;;;;;;;;;;5093631;28;992;-42
2023/03/16 16:09:16;;;;;;;;;;;;;;;;;;5093126;28;1077;-40
2023/03/16 16:11:43;;;;;;;;;;;;;;;;;;5093781;28;1973;-43
2023/03/16 16:14:10;;;;;;;;;;;;;;;;;;5093993;28;1415;-41
2023/03/16 16:16:37;;;;;;;;;;;;;;;;;;5093436;28;1020;-42
2023/03/16 16:19:07;;;;;;;;;;;;;;;;;;5093867;28;1420;-41
2023/03/16 16:21:34;;;;;;;;;;;;;;;;;;5093579;28;1083;-41
2023/03/16 16:24:02;;;;;;;;;;;;;;;;;;5093703;28;986;-42
2023/03/16 16:26:28;;;;;;;;;;;;;;;;;;5093447;28;1164;-42
2023/03/16 16:29:47;;;;;;;;;;;;;;;;;;5050866;28;1132;-42
2023/03/16 16:38:59;;;;;;;;;;;;;;;;;;5068270;28;1270;-41
2023/03/16 16:41:30;;;;;;;;;;;;;;;;;;5070719;28;1100;-40
2023/03/16 16:43:58;;;;;;;;;;;;;;;;;;5070563;28;1276;-41
2023/03/16 16:46:26;;;;;;;;;;;;;;;;;;5074359;28;1000;-42
2023/03/16 16:48:53;;;;;;;;;;;;;;;;;;5113408;28;1076;-40
2023/03/16 16:51:20;;;;;;;;;;;;;;;;;;5113564;28;1186;-46
2023/03/16 16:53:47;;;;;;;;;;;;;;;;;;5113452;28;1941;-42
2023/03/16 16:56:15;;;;;;;;;;;;;;;;;;5122779;27;1337;-41
2023/03/16 16:58:42;;;;;;;;;;;;;;;;;;5133999;27;989;-41
2023/03/16 17:01:09;;;;;;;;;;;;;;;;;;5133814;27;951;-41
2023/03/16 17:03:36;;;;;;;;;;;;;;;;;;5133868;27;955;-41
2023/03/16 17:06:03;;;;;;;;;;;;;;;;;;5133786;27;1071;-41
2023/03/16 17:08:30;;;;;;;;;;;;;;;;;;5133490;27;1069;-42
2023/03/16 17:10:57;;;;;;;;;;;;;;;;;;5132682;27;1002;-40
2023/03/16 17:13:25;;;;;;;;;;;;;;;;;;5133367;27;1917;-50
2023/03/16 17:15:53;;;;;;;;;;;;;;;;;;5132654;27;1176;-51
2023/03/16 17:18:20;;;;;;;;;;;;;;;;;;5133577;27;1251;-42
2023/03/16 17:20:48;;;;;;;;;;;;;;;;;;5133710;27;1109;-41
2023/03/16 17:23:15;;;;;;;;;;;;;;;;;;5133510;27;1207;-42
2023/03/16 17:25:43;;;;;;;;;;;;;;;;;;5132068;27;1002;-40
2023/03/16 17:28:10;;;;;;;;;;;;;;;;;;5133366;27;1157;-41
2023/03/16 17:30:37;;;;;;;;;;;;;;;;;;5133180;27;902;-41
2023/03/16 17:33:05;;;;;;;;;;;;;;;;;;5133134;27;1949;-41
2023/03/16 17:35:32;;;;;;;;;;;;;;;;;;5133156;27;1396;-41
2023/03/16 17:37:59;;;;;;;;;;;;;;;;;;5143098;27;1345;-41
2023/03/16 17:40:26;;;;;;;;;;;;;;;;;;5152953;27;1085;-43
2023/03/16 17:42:54;;;;;;;;;;;;;;;;;;5153734;27;987;-41
2023/03/16 17:45:21;;;;;;;;;;;;;;;;;;5153870;27;1068;-41
2023/03/16 17:47:48;;;;;;;;;;;;;;;;;;5153862;27;1175;-42
2023/03/16 17:50:15;;;;;;;;;;;;;;;;;;5153555;27;1191;-40
2023/03/16 17:52:42;;;;;;;;;;;;;;;;;;5138337;27;1998;-41
2023/03/16 17:55:10;;;;;;;;;;;;;;;;;;5133017;27;1344;-42
2023/03/16 17:57:37;;;;;;;;;;;;;;;;;;5153415;27;1067;-41
2023/03/16 18:00:04;;;;;;;;;;;;;;;;;;5153371;27;1159;-41
2023/03/16 18:02:32;;;;;;;;;;;;;;;;;;5153215;27;1059;-41
2023/03/16 18:04:59;;;;;;;;;;;;;;;;;;5153108;27;1193;-41
2023/03/16 18:07:26;;;;;;;;;;;;;;;;;;5153133;27;1279;-46
2023/03/16 18:09:53;;;;;;;;;;;;;;;;;;5153166;27;1053;-41
2023/03/16 18:12:20;;;;;;;;;;;;;;;;;;5153430;27;1903;-41
2023/03/16 18:14:47;;;;;;;;;;;;;;;;;;5138950;27;1135;-40
2023/03/16 18:17:14;;;;;;;;;;;;;;;;;;5132397;27;1319;-41
2023/03/16 18:19:42;;;;;;;;;;;;;;;;;;5132125;27;1140;-40
2023/03/16 18:22:09;;;;;;;;;;;;;;;;;;5132386;27;1067;-41
2023/03/16 18:24:36;;;;;;;;;;;;;;;;;;5132410;27;1282;-40
2023/03/16 18:27:03;;;;;;;;;;;;;;;;;;5132001;27;1133;-41
2023/03/16 18:29:32;;;;;;;;;;;;;;;;;;5132268;27;1063;-42
2023/03/16 18:32:00;;;;;;;;;;;;;;;;;;5132113;28;1059;-41
2023/03/16 18:34:27;;;;;;;;;;;;;;;;;;5132139;28;1978;-41
2023/03/16 18:36:58;;;;;;;;;;;;;;;;;;5131910;28;1325;-41
2023/03/16 18:39:26;;;;;;;;;;;;;;;;;;5132278;28;1163;-41
2023/03/16 18:41:53;;;;;;;;;;;;;;;;;;5132594;28;1202;-42
2023/03/16 18:44:20;;;;;;;;;;;;;;;;;;5132373;28;1101;-41
2023/03/16 18:46:47;;;;;;;;;;;;;;;;;;5132022;28;924;-44
2023/03/16 18:49:14;;;;;;;;;;;;;;;;;;5131933;28;1334;-41
2023/03/16 18:51:41;;;;;;;;;;;;;;;;;;5132152;28;1107;-46
2023/03/16 18:54:08;;;;;;;;;;;;;;;;;;5131921;28;1980;-40
2023/03/16 18:56:34;;;;;;;;;;;;;;;;;;5125881;27;1350;-40
2023/03/16 18:59:02;;;;;;;;;;;;;;;;;;5152708;27;1014;-40
2023/03/16 19:01:29;;;;;;;;;;;;;;;;;;5152508;27;948;-41
2023/03/16 19:03:55;;;;;;;;;;;;;;;;;;5152838;27;994;-40
2023/03/16 19:06:24;;;;;;;;;;;;;;;;;;5152788;27;1160;-41
2023/03/16 19:08:51;;;;;;;;;;;;;;;;;;5152978;27;1153;-42
2023/03/16 19:11:18;;;;;;;;;;;;;;;;;;5152568;27;1065;-50
2023/03/16 19:13:45;;;;;;;;;;;;;;;;;;5152327;27;1965;-53
2023/03/16 19:16:12;;;;;;;;;;;;;;;;;;5152564;27;1016;-41
2023/03/16 19:21:09;;;;;;;;;;;;;;;;;;5152588;27;1099;-41
2023/03/16 19:23:36;;;;;;;;;;;;;;;;;;5152468;27;1158;-41
2023/03/16 19:26:03;;;;;;;;;;;;;;;;;;5152430;27;1398;-42
2023/03/16 19:28:33;;;;;;;;;;;;;;;;;;5152840;27;1403;-43
2023/03/16 19:31:00;;;;;;;;;;;;;;;;;;5152647;27;1156;-44
2023/03/16 19:33:31;;;;;;;;;;;;;;;;;;5153044;27;1990;-41
2023/03/16 19:36:01;;;;;;;;;;;;;;;;;;5152366;27;1067;-41
2023/03/16 19:38:32;;;;;;;;;;;;;;;;;;5153281;27;1177;-41
2023/03/16 19:41:03;;;;;;;;;;;;;;;;;;5156055;27;1201;-41
2023/03/16 19:43:30;;;;;;;;;;;;;;;;;;5156187;27;946;-40
2023/03/16 19:45:57;;;;;;;;;;;;;;;;;;5156310;27;1046;-40
2023/03/16 19:48:24;;;;;;;;;;;;;;;;;;5137440;27;1173;-46
2023/03/16 19:50:51;;;;;;;;;;;;;;;;;;5155850;27;1452;-42
2023/03/16 19:53:18;;;;;;;;;;;;;;;;;;5155899;27;1901;-41
2023/03/16 19:55:46;;;;;;;;;;;;;;;;;;5132140;27;1397;-40
2023/03/16 19:58:13;;;;;;;;;;;;;;;;;;5135097;27;1078;-41
2023/03/16 20:00:40;;;;;;;;;;;;;;;;;;5134976;27;1067;-40
2023/03/16 20:03:07;;;;;;;;;;;;;;;;;;5135105;27;1074;-41
2023/03/16 20:05:37;;;;;;;;;;;;;;;;;;5134803;27;899;-41
2023/03/16 20:08:04;;;;;;;;;;;;;;;;;;5134741;27;1087;-39
2023/03/16 20:10:31;;;;;;;;;;;;;;;;;;5134714;27;963;-41
2023/03/16 20:12:58;;;;;;;;;;;;;;;;;;5134811;27;1901;-41
2023/03/16 20:15:26;;;;;;;;;;;;;;;;;;5134958;27;1140;-40
2023/03/16 20:17:54;;;;;;;;;;;;;;;;;;5134508;27;930;-41